Time;durP1;ratioP1;P1;durP2;ratioP2;P2;SDS_P1;SDS_P2;PMS_P1;PMS_P2;Temp;Humidity;BMP_temperature;BMP_pressure;BME280_temperature;BME280_humidity;BME280_pressure;Samples;Min_cycle;Max_cycle;Signal;HPM_P1;HPM_P2
2023/08/07 00:01:22;;;;;;;;;;;;;;;18.20;56.90;101288.19;4983687;28;20258;-74
2023/08/07 00:03:47;;;;;;;;;;;;;;;18.19;56.76;101288.44;4986452;28;20361;-72
2023/08/07 00:06:13;;;;;;;;;;;;;;;18.18;56.81;101298.59;4986671;28;19929;-72
2023/08/07 00:08:38;;;;;;;;;;;;;;;18.16;56.85;101296.13;4986041;28;20016;-72
2023/08/07 00:11:07;;;;;;;;;;;;;;;18.14;56.90;101301.06;4987798;28;20061;-72
2023/08/07 00:13:32;;;;;;;;;;;;;;;18.15;56.69;101299.16;4979203;28;19922;-72
2023/08/07 00:15:57;;;;;;;;;;;;;;;18.14;56.57;101298.34;4989428;28;19926;-71
2023/08/07 00:18:23;;;;;;;;;;;;;;;18.14;56.75;101289.28;4983919;28;20000;-73
2023/08/07 00:20:48;;;;;;;;;;;;;;;18.13;56.85;101295.88;4983934;28;19922;-72
2023/08/07 00:23:13;;;;;;;;;;;;;;;18.12;56.59;101296.97;4981180;28;19922;-72
2023/08/07 00:25:38;;;;;;;;;;;;;;;18.11;56.86;101293.41;4989493;28;19924;-72
2023/08/07 00:28:04;;;;;;;;;;;;;;;18.11;56.56;101292.59;4981682;28;19930;-72
2023/08/07 00:30:29;;;;;;;;;;;;;;;18.09;56.60;101300.25;4981871;28;19957;-73
2023/08/07 00:32:55;;;;;;;;;;;;;;;18.09;56.76;101297.50;4983130;28;20285;-72
2023/08/07 00:35:20;;;;;;;;;;;;;;;18.09;56.92;101301.09;4986062;28;19917;-72
2023/08/07 00:37:45;;;;;;;;;;;;;;;18.09;56.56;101292.03;4987888;28;19918;-72
2023/08/07 00:40:11;;;;;;;;;;;;;;;18.08;56.55;101293.97;4990701;28;20360;-73
2023/08/07 00:42:36;;;;;;;;;;;;;;;18.09;56.87;101300.25;4984835;28;19920;-72
2023/08/07 00:45:01;;;;;;;;;;;;;;;18.09;56.53;101297.50;5020179;28;20017;-72
2023/08/07 00:47:27;;;;;;;;;;;;;;;18.08;56.48;101304.09;4980252;28;19929;-74
2023/08/07 00:49:52;;;;;;;;;;;;;;;18.07;56.74;101302.47;4986019;28;19918;-72
2023/08/07 00:52:17;;;;;;;;;;;;;;;18.07;56.60;101305.19;4980897;28;19918;-74
2023/08/07 00:54:43;;;;;;;;;;;;;;;18.06;56.43;101301.63;4981176;28;19926;-72
2023/08/07 00:57:12;;;;;;;;;;;;;;;18.05;56.77;101299.19;5006378;28;20275;-72
2023/08/07 00:59:38;;;;;;;;;;;;;;;18.04;56.80;101309.31;4977309;28;19926;-72
2023/08/07 01:02:03;;;;;;;;;;;;;;;18.06;56.37;101309.00;4986149;28;19939;-72
2023/08/07 01:04:29;;;;;;;;;;;;;;;18.04;56.70;101314.78;4985926;28;20658;-74
2023/08/07 01:06:54;;;;;;;;;;;;;;;18.02;56.51;101311.50;4987905;28;20009;-71
2023/08/07 01:09:19;;;;;;;;;;;;;;;18.02;56.64;101316.97;5023029;28;19925;-72
2023/08/07 01:11:48;;;;;;;;;;;;;;;18.01;56.80;101315.31;4984893;28;19969;-74
2023/08/07 01:14:28;;;;;;;;;;;;;;;18.01;56.33;101314.50;4987840;28;19925;-71
2023/08/07 01:17:03;;;;;;;;;;;;;;;17.98;56.32;101302.22;4983150;28;19964;-71
2023/08/07 01:19:29;;;;;;;;;;;;;;;17.97;56.29;101307.94;4979446;28;19975;-73
2023/08/07 01:22:23;;;;;;;;;;;;;;;17.96;56.70;101318.06;4988754;28;20366;-75
2023/08/07 01:24:50;;;;;;;;;;;;;;;17.96;56.30;101329.00;4974137;28;19949;-73
2023/08/07 01:27:18;;;;;;;;;;;;;;;17.94;56.52;101334.75;4985755;28;19921;-72
2023/08/07 01:30:01;;;;;;;;;;;;;;;17.92;56.45;101338.88;4980658;28;19956;-72
2023/08/07 01:32:35;;;;;;;;;;;;;;;17.89;56.33;101353.06;4980016;28;19918;-72
2023/08/07 01:35:05;;;;;;;;;;;;;;;17.88;56.39;101343.25;4984305;28;19918;-75
2023/08/07 01:37:32;;;;;;;;;;;;;;;17.88;56.35;101343.25;4991025;28;19925;-73
2023/08/07 01:39:58;;;;;;;;;;;;;;;17.88;56.54;101324.91;4995783;28;19930;-72
2023/08/07 01:42:24;;;;;;;;;;;;;;;17.88;56.38;101327.66;4989598;28;19918;-72
2023/08/07 01:44:49;;;;;;;;;;;;;;;17.88;56.71;101333.13;4989154;28;19929;-72
2023/08/07 01:47:14;;;;;;;;;;;;;;;17.89;56.36;101333.94;4984990;28;19980;-72
2023/08/07 01:49:40;;;;;;;;;;;;;;;17.89;56.32;101328.47;4988739;28;20326;-72
2023/08/07 01:52:06;;;;;;;;;;;;;;;17.89;56.70;101323.00;4989241;28;19937;-74
2023/08/07 01:54:31;;;;;;;;;;;;;;;17.90;56.32;101321.91;4988006;28;19929;-73
2023/08/07 01:56:56;;;;;;;;;;;;;;;17.90;56.69;101317.25;4983122;28;19980;-73
2023/08/07 01:59:22;;;;;;;;;;;;;;;17.90;56.32;101319.19;4986201;28;21095;-73
2023/08/07 02:01:47;;;;;;;;;;;;;;;17.90;56.60;101322.72;4990712;28;19962;-72
2023/08/07 02:04:12;;;;;;;;;;;;;;;17.90;56.41;101325.47;4998798;28;19964;-70
2023/08/07 02:06:37;;;;;;;;;;;;;;;17.89;56.43;101323.00;4988104;28;19948;-72
2023/08/07 02:09:03;;;;;;;;;;;;;;;17.90;56.66;101330.94;5010800;28;19929;-72
2023/08/07 02:11:28;;;;;;;;;;;;;;;17.88;56.66;101322.19;4992022;28;19922;-72
2023/08/07 02:13:53;;;;;;;;;;;;;;;17.89;56.64;101328.47;4987712;28;20732;-71
2023/08/07 02:16:18;;;;;;;;;;;;;;;17.89;56.32;101328.47;4983497;28;20070;-72
2023/08/07 02:18:45;;;;;;;;;;;;;;;17.88;56.25;101332.31;4990523;28;19973;-72
2023/08/07 02:21:10;;;;;;;;;;;;;;;17.87;56.29;101331.50;4989238;28;20318;-72
2023/08/07 02:23:35;;;;;;;;;;;;;;;17.86;56.54;101335.31;4985404;28;19930;-73
2023/08/07 02:26:01;;;;;;;;;;;;;;;17.87;56.23;101336.16;4986528;28;20338;-72
2023/08/07 02:28:26;;;;;;;;;;;;;;;17.86;56.48;101332.56;4990040;28;19961;-71
2023/08/07 02:30:54;;;;;;;;;;;;;;;17.86;56.58;101334.50;4994899;28;20036;-72
2023/08/07 02:33:19;;;;;;;;;;;;;;;17.86;56.28;101331.75;4988926;28;20374;-72
2023/08/07 02:35:45;;;;;;;;;;;;;;;17.85;56.60;101330.13;4990464;28;20404;-73
2023/08/07 02:38:10;;;;;;;;;;;;;;;17.85;56.46;101327.41;4987738;28;19997;-72
2023/08/07 02:40:36;;;;;;;;;;;;;;;17.85;56.56;101330.13;4984842;28;19928;-72
2023/08/07 02:43:01;;;;;;;;;;;;;;;17.85;56.42;101330.13;4982944;28;19926;-72
2023/08/07 02:45:26;;;;;;;;;;;;;;;17.85;56.23;101330.13;4991369;28;20402;-72
2023/08/07 02:47:51;;;;;;;;;;;;;;;17.84;56.43;101329.31;4985114;28;19971;-72
2023/08/07 02:50:17;;;;;;;;;;;;;;;17.84;56.52;101339.41;4996510;28;20361;-72
2023/08/07 02:52:42;;;;;;;;;;;;;;;17.83;56.40;101335.88;4982060;28;19965;-72
2023/08/07 02:55:07;;;;;;;;;;;;;;;17.83;56.19;101337.78;4986193;28;19949;-71
2023/08/07 02:57:33;;;;;;;;;;;;;;;17.82;56.42;101333.44;4987400;28;20319;-72
2023/08/07 02:59:58;;;;;;;;;;;;;;;17.81;56.32;101329.84;5021776;28;19922;-72
2023/08/07 03:02:23;;;;;;;;;;;;;;;17.81;56.31;101338.06;4981609;28;20418;-72
2023/08/07 03:04:48;;;;;;;;;;;;;;;17.80;56.21;101336.44;4986981;28;19971;-72
2023/08/07 03:07:14;;;;;;;;;;;;;;;17.80;56.31;101333.69;4988480;28;19937;-74
2023/08/07 03:09:39;;;;;;;;;;;;;;;17.79;56.39;101329.31;4981543;28;20075;-72
2023/08/07 03:12:05;;;;;;;;;;;;;;;17.79;56.15;101328.47;4984075;28;19940;-71
2023/08/07 03:14:30;;;;;;;;;;;;;;;17.78;56.37;101319.44;4993750;28;19922;-73
2023/08/07 03:16:55;;;;;;;;;;;;;;;17.78;56.27;101322.19;4995795;28;19918;-72
2023/08/07 03:19:21;;;;;;;;;;;;;;;17.77;56.06;101325.22;4986252;28;20047;-72
2023/08/07 03:21:46;;;;;;;;;;;;;;;17.77;56.14;101325.22;4986124;28;21618;-72
2023/08/07 03:24:12;;;;;;;;;;;;;;;17.77;56.11;101327.94;4991568;28;20302;-73
2023/08/07 03:26:37;;;;;;;;;;;;;;;17.76;56.17;101335.31;4973854;28;19922;-72
2023/08/07 03:29:02;;;;;;;;;;;;;;;17.76;56.16;101329.03;4984915;28;19918;-72
2023/08/07 03:31:27;;;;;;;;;;;;;;;17.76;56.23;101324.38;4989535;28;20358;-72
2023/08/07 03:33:53;;;;;;;;;;;;;;;17.76;56.15;101334.47;4983662;28;19925;-72
2023/08/07 03:36:18;;;;;;;;;;;;;;;17.74;56.24;101321.94;4986981;28;19928;-71
2023/08/07 03:38:44;;;;;;;;;;;;;;;17.73;56.47;101331.22;4990869;28;20073;-74
2023/08/07 03:41:10;;;;;;;;;;;;;;;17.74;56.22;101340.25;4982344;28;19918;-73
2023/08/07 03:43:35;;;;;;;;;;;;;;;17.71;56.44;101327.97;4987000;28;20357;-72
2023/08/07 03:46:00;;;;;;;;;;;;;;;17.72;56.28;101339.69;4990388;28;20278;-71
2023/08/07 03:48:25;;;;;;;;;;;;;;;17.72;56.32;101332.31;4986326;28;19922;-73
2023/08/07 03:50:51;;;;;;;;;;;;;;;17.71;56.08;101330.69;4985634;28;20367;-73
2023/08/07 03:53:16;;;;;;;;;;;;;;;17.71;56.16;101341.63;4984109;28;19968;-70
2023/08/07 03:55:41;;;;;;;;;;;;;;;17.71;56.18;101343.50;4982846;28;19922;-70
2023/08/07 03:58:07;;;;;;;;;;;;;;;17.70;56.16;101347.34;4990630;28;20377;-73
2023/08/07 04:00:32;;;;;;;;;;;;;;;17.71;56.37;101344.34;4989498;28;19957;-73
2023/08/07 04:02:58;;;;;;;;;;;;;;;17.70;56.27;101355.53;4987726;28;20344;-73
2023/08/07 04:05:23;;;;;;;;;;;;;;;17.69;56.41;101343.00;4977290;28;19922;-71
2023/08/07 04:07:49;;;;;;;;;;;;;;;17.67;56.27;101347.91;4984361;28;19976;-74
2023/08/07 04:10:14;;;;;;;;;;;;;;;17.66;56.38;101349.78;4985105;28;20146;-72
2023/08/07 04:12:39;;;;;;;;;;;;;;;17.65;56.39;101347.34;4978409;28;19980;-72
2023/08/07 04:15:06;;;;;;;;;;;;;;;17.65;56.32;101352.81;4987054;28;20021;-73
2023/08/07 04:17:31;;;;;;;;;;;;;;;17.66;56.16;101357.19;4988853;28;20263;-72
2023/08/07 04:19:57;;;;;;;;;;;;;;;17.65;56.21;101361.00;4979780;28;20389;-73
2023/08/07 04:22:22;;;;;;;;;;;;;;;17.65;56.19;101361.00;4981636;28;19918;-72
2023/08/07 04:24:47;;;;;;;;;;;;;;;17.65;56.11;101355.56;4985367;28;20342;-74
2023/08/07 04:27:12;;;;;;;;;;;;;;;17.63;56.19;101357.72;4988346;28;20458;-72
2023/08/07 04:29:38;;;;;;;;;;;;;;;17.63;56.07;101365.94;4991692;28;19926;-72
2023/08/07 04:32:03;;;;;;;;;;;;;;;17.62;56.13;101373.31;4977757;28;19922;-72
2023/08/07 04:34:28;;;;;;;;;;;;;;;17.61;56.12;101362.66;4987196;28;19948;-71
2023/08/07 04:36:56;;;;;;;;;;;;;;;17.61;56.39;101368.91;4986089;28;19922;-71
2023/08/07 04:39:21;;;;;;;;;;;;;;;17.60;56.36;101364.56;4994294;28;19922;-71
2023/08/07 04:41:47;;;;;;;;;;;;;;;17.60;56.35;101367.28;4985172;28;19922;-72
2023/08/07 04:44:12;;;;;;;;;;;;;;;17.60;56.37;101370.03;4984742;28;19924;-72
2023/08/07 04:46:38;;;;;;;;;;;;;;;17.61;56.35;101366.19;4976376;28;20421;-72
2023/08/07 04:49:03;;;;;;;;;;;;;;;17.60;56.23;101367.28;4986199;28;19956;-72
2023/08/07 04:51:29;;;;;;;;;;;;;;;17.59;56.23;101368.41;4986235;28;19999;-71
2023/08/07 04:53:56;;;;;;;;;;;;;;;17.59;56.07;101367.56;4984794;28;19936;-73
2023/08/07 04:56:22;;;;;;;;;;;;;;;17.57;56.26;101362.38;4980715;28;20004;-73
2023/08/07 04:58:47;;;;;;;;;;;;;;;17.57;56.32;101376.03;4986291;28;20442;-71
2023/08/07 05:01:12;;;;;;;;;;;;;;;17.58;56.30;101371.41;4980645;28;19926;-73
2023/08/07 05:03:37;;;;;;;;;;;;;;;17.58;56.41;101380.41;4986250;28;20377;-73
2023/08/07 05:06:03;;;;;;;;;;;;;;;17.58;56.10;101385.06;4985595;28;20016;-73
2023/08/07 05:08:28;;;;;;;;;;;;;;;17.59;56.24;101383.94;4985014;28;19996;-72
2023/08/07 05:10:54;;;;;;;;;;;;;;;17.58;56.40;101374.94;4983587;28;19918;-74
2023/08/07 05:13:19;;;;;;;;;;;;;;;17.59;56.40;101383.94;4989931;28;19922;-73
2023/08/07 05:15:46;;;;;;;;;;;;;;;17.57;56.24;101378.78;4988671;28;19926;-72
2023/08/07 05:18:11;;;;;;;;;;;;;;;17.58;56.38;101380.41;4987011;28;19922;-72
2023/08/07 05:20:37;;;;;;;;;;;;;;;17.57;56.05;101386.97;4990522;28;19968;-74
2023/08/07 05:23:02;;;;;;;;;;;;;;;17.57;56.16;101380.69;4984955;28;20392;-73
2023/08/07 05:25:27;;;;;;;;;;;;;;;17.57;55.96;101386.97;4988388;28;19922;-72
2023/08/07 05:27:53;;;;;;;;;;;;;;;17.58;56.06;101387.78;4987008;28;19929;-73
2023/08/07 05:30:18;;;;;;;;;;;;;;;17.58;56.23;101390.53;4991889;28;20381;-73
2023/08/07 05:32:44;;;;;;;;;;;;;;;17.57;56.22;101395.16;4986299;28;20036;-72
2023/08/07 05:35:09;;;;;;;;;;;;;;;17.57;56.07;101392.44;4985262;28;19922;-72
2023/08/07 05:37:34;;;;;;;;;;;;;;;17.57;56.09;101389.69;4991648;28;20378;-74
2023/08/07 05:40:00;;;;;;;;;;;;;;;17.58;56.08;101398.72;4994463;28;19921;-72
2023/08/07 05:42:25;;;;;;;;;;;;;;;17.57;56.08;101400.63;4991208;28;19921;-73
2023/08/07 05:44:51;;;;;;;;;;;;;;;17.57;56.39;101406.09;4982275;28;20338;-72
2023/08/07 05:47:16;;;;;;;;;;;;;;;17.57;56.09;101411.56;4994068;28;19914;-74
2023/08/07 05:49:42;;;;;;;;;;;;;;;17.57;56.35;101418.94;4990354;28;19928;-72
2023/08/07 05:52:07;;;;;;;;;;;;;;;17.57;56.16;101418.94;4979544;28;19918;-72
2023/08/07 05:54:32;;;;;;;;;;;;;;;17.56;56.35;101423.56;4991093;28;19976;-72
2023/08/07 05:56:58;;;;;;;;;;;;;;;17.57;56.46;101425.22;4988247;28;20016;-73
2023/08/07 05:59:23;;;;;;;;;;;;;;;17.57;56.08;101427.94;4990898;28;19968;-71
2023/08/07 06:01:48;;;;;;;;;;;;;;;17.58;56.38;101435.03;4995058;28;20024;-72
2023/08/07 06:04:13;;;;;;;;;;;;;;;17.57;56.09;101433.41;4994462;28;20016;-72
2023/08/07 06:06:39;;;;;;;;;;;;;;;17.58;56.20;101428.75;4990485;28;19930;-72
2023/08/07 06:09:06;;;;;;;;;;;;;;;17.58;56.34;101432.31;4994342;28;19943;-72
2023/08/07 06:11:31;;;;;;;;;;;;;;;17.57;56.21;101430.69;4995472;28;20038;-72
2023/08/07 06:13:56;;;;;;;;;;;;;;;17.57;56.33;101430.69;4984311;28;20012;-72
2023/08/07 06:16:22;;;;;;;;;;;;;;;17.59;55.99;101435.84;4991874;28;19940;-76
2023/08/07 06:18:47;;;;;;;;;;;;;;;17.57;56.28;101440.78;4991864;28;20354;-73
2023/08/07 06:21:12;;;;;;;;;;;;;;;17.58;56.04;101440.50;4998265;28;20017;-72
2023/08/07 06:23:38;;;;;;;;;;;;;;;17.57;56.21;101441.59;4989800;28;19922;-74
2023/08/07 06:26:04;;;;;;;;;;;;;;;17.57;55.96;101449.81;4990827;28;19965;-71
2023/08/07 06:28:30;;;;;;;;;;;;;;;17.56;56.24;101450.88;4993686;28;19918;-73
2023/08/07 06:31:00;;;;;;;;;;;;;;;17.58;56.31;101447.88;4994749;28;19921;-73
2023/08/07 06:33:25;;;;;;;;;;;;;;;17.57;56.00;101452.53;5001622;28;19921;-71
2023/08/07 06:35:52;;;;;;;;;;;;;;;17.57;55.98;101451.72;4988244;28;19922;-73
2023/08/07 06:38:17;;;;;;;;;;;;;;;17.56;56.00;101448.16;4983985;28;19928;-74
2023/08/07 06:40:44;;;;;;;;;;;;;;;17.56;56.29;101450.88;4991373;28;19922;-69
2023/08/07 06:43:09;;;;;;;;;;;;;;;17.55;56.04;101451.16;4984377;28;19953;-72
2023/08/07 06:45:34;;;;;;;;;;;;;;;17.55;56.31;101462.91;4986452;28;19962;-73
2023/08/07 06:48:00;;;;;;;;;;;;;;;17.55;56.17;101462.91;4985835;28;20693;-74
2023/08/07 06:50:25;;;;;;;;;;;;;;;17.54;56.09;101461.28;4982416;28;19925;-76
2023/08/07 06:52:50;;;;;;;;;;;;;;;17.54;56.11;101458.53;4988084;28;20147;-74
2023/08/07 06:55:16;;;;;;;;;;;;;;;17.53;55.99;101463.16;4989127;28;20012;-72
2023/08/07 06:57:41;;;;;;;;;;;;;;;17.53;56.18;101468.63;4989799;28;20040;-73
2023/08/07 07:00:07;;;;;;;;;;;;;;;17.53;55.96;101471.38;4984138;28;19945;-74
2023/08/07 07:02:32;;;;;;;;;;;;;;;17.53;56.00;101471.38;4987615;28;19926;-76
2023/08/07 07:04:57;;;;;;;;;;;;;;;17.53;56.17;101467.81;4983780;28;19922;-73
2023/08/07 07:07:22;;;;;;;;;;;;;;;17.55;56.23;101475.75;4987329;28;19922;-73
2023/08/07 07:09:48;;;;;;;;;;;;;;;17.55;55.88;101468.38;4987716;28;19925;-73
2023/08/07 07:12:13;;;;;;;;;;;;;;;17.57;56.00;101470.84;4989354;28;20392;-72
2023/08/07 07:14:38;;;;;;;;;;;;;;;17.57;55.84;101474.38;4986837;28;19926;-76
2023/08/07 07:17:03;;;;;;;;;;;;;;;17.58;55.82;101480.66;4973206;28;19933;-73
2023/08/07 07:19:29;;;;;;;;;;;;;;;17.59;56.03;101479.56;4986129;28;19922;-73
2023/08/07 07:21:54;;;;;;;;;;;;;;;17.59;55.79;101474.09;4989136;28;20462;-74
2023/08/07 07:24:20;;;;;;;;;;;;;;;17.58;55.76;101481.47;4987479;28;19929;-72
2023/08/07 07:26:45;;;;;;;;;;;;;;;17.59;55.68;101491.34;4984972;28;19936;-74
2023/08/07 07:29:10;;;;;;;;;;;;;;;17.59;55.87;101485.88;4987115;28;19921;-73
2023/08/07 07:31:36;;;;;;;;;;;;;;;17.60;56.02;101489.41;4987117;28;19930;-73
2023/08/07 07:34:01;;;;;;;;;;;;;;;17.61;55.83;101488.31;4985359;28;20027;-74
2023/08/07 07:36:26;;;;;;;;;;;;;;;17.61;55.67;101491.84;4987042;28;19964;-73
2023/08/07 07:38:52;;;;;;;;;;;;;;;17.60;55.77;101492.97;4986171;28;19948;-74
2023/08/07 07:41:17;;;;;;;;;;;;;;;17.61;55.70;101494.59;5017159;28;19922;-73
2023/08/07 07:43:42;;;;;;;;;;;;;;;17.62;55.76;101496.25;4989994;28;19917;-71
2023/08/07 07:46:08;;;;;;;;;;;;;;;17.63;55.52;101495.13;4989300;28;19968;-76
2023/08/07 07:48:33;;;;;;;;;;;;;;;17.65;55.62;101503.06;4988077;28;19924;-72
2023/08/07 07:51:00;;;;;;;;;;;;;;;17.64;55.58;101496.81;4994141;28;20000;-74
2023/08/07 07:53:25;;;;;;;;;;;;;;;17.66;55.27;101504.72;4987642;28;20124;-73
2023/08/07 07:55:50;;;;;;;;;;;;;;;17.67;55.68;101501.72;4987394;28;19972;-69
2023/08/07 07:58:16;;;;;;;;;;;;;;;17.69;55.32;101501.47;4986581;28;19922;-73
2023/08/07 08:00:42;;;;;;;;;;;;;;;17.70;55.54;101497.63;4985149;28;19921;-73
2023/08/07 08:03:07;;;;;;;;;;;;;;;17.72;55.55;101506.38;4987857;28;19922;-71
2023/08/07 08:05:32;;;;;;;;;;;;;;;17.75;55.61;101514.00;4985227;28;19926;-73
2023/08/07 08:07:58;;;;;;;;;;;;;;;17.76;55.43;101523.03;4983903;28;19926;-73
2023/08/07 08:10:23;;;;;;;;;;;;;;;17.79;55.66;101517.00;4986241;28;19948;-71
2023/08/07 08:12:48;;;;;;;;;;;;;;;17.81;55.41;101526.59;4984185;28;19926;-72
2023/08/07 08:15:13;;;;;;;;;;;;;;;17.83;55.56;101532.63;4986572;28;19961;-72
2023/08/07 08:17:39;;;;;;;;;;;;;;;17.84;55.60;101539.75;4984242;28;19930;-72
2023/08/07 08:20:05;;;;;;;;;;;;;;;17.85;55.60;101530.44;4986261;28;20453;-71
2023/08/07 08:22:30;;;;;;;;;;;;;;;17.87;55.53;101531.00;4989036;28;19984;-74
2023/08/07 08:24:55;;;;;;;;;;;;;;;17.89;56.02;101541.66;4983787;28;20293;-71
2023/08/07 08:27:21;;;;;;;;;;;;;;;17.94;56.14;101544.38;4981990;28;19922;-74
2023/08/07 08:29:47;;;;;;;;;;;;;;;17.98;56.19;101550.97;4985423;28;19934;-72
2023/08/07 08:32:12;;;;;;;;;;;;;;;18.02;55.91;101545.78;4989520;28;20068;-76
2023/08/07 08:34:37;;;;;;;;;;;;;;;18.06;55.69;101549.59;4971574;28;19928;-72
2023/08/07 08:37:05;;;;;;;;;;;;;;;18.09;55.76;101552.63;4984622;28;19926;-75
2023/08/07 08:39:30;;;;;;;;;;;;;;;18.12;55.80;101548.50;4987601;28;20132;-71
2023/08/07 08:41:56;;;;;;;;;;;;;;;18.16;55.85;101553.13;4988857;28;20374;-73
2023/08/07 08:44:22;;;;;;;;;;;;;;;18.20;55.76;101550.69;4985693;28;19972;-72
2023/08/07 08:46:49;;;;;;;;;;;;;;;18.25;55.68;101544.41;4986865;28;19932;-71
2023/08/07 08:49:16;;;;;;;;;;;;;;;18.28;55.89;101552.88;4987748;28;19924;-75
2023/08/07 08:51:42;;;;;;;;;;;;;;;18.31;55.69;101549.56;4985562;28;19965;-72
2023/08/07 08:54:07;;;;;;;;;;;;;;;18.38;55.84;101552.03;4985098;28;19929;-72
2023/08/07 08:56:33;;;;;;;;;;;;;;;18.44;55.93;101558.31;4984321;28;20430;-73
2023/08/07 08:58:58;;;;;;;;;;;;;;;18.48;55.91;101556.69;4981768;28;19925;-75
2023/08/07 09:01:24;;;;;;;;;;;;;;;18.53;55.70;101565.69;4985448;28;20344;-73
2023/08/07 09:03:49;;;;;;;;;;;;;;;18.59;55.90;101550.09;4987010;28;20428;-72
2023/08/07 09:06:15;;;;;;;;;;;;;;;18.64;55.60;101546.53;4984233;28;19964;-75
2023/08/07 09:08:43;;;;;;;;;;;;;;;18.65;55.51;101546.25;4988461;28;19941;-73
2023/08/07 09:11:10;;;;;;;;;;;;;;;18.68;55.55;101547.63;4986350;28;19980;-73
2023/08/07 09:13:36;;;;;;;;;;;;;;;18.69;55.28;101569.22;4982463;28;19945;-73
2023/08/07 09:16:02;;;;;;;;;;;;;;;18.74;55.31;101566.47;4984441;28;20691;-71
2023/08/07 09:18:28;;;;;;;;;;;;;;;18.82;54.78;101584.25;4984469;28;20363;-71
2023/08/07 09:20:53;;;;;;;;;;;;;;;18.89;55.33;101565.63;4985897;28;19953;-74
2023/08/07 09:23:19;;;;;;;;;;;;;;;18.96;55.21;101581.78;4986838;28;20305;-74
2023/08/07 09:25:44;;;;;;;;;;;;;;;19.02;54.78;101584.22;4988133;28;19925;-74
2023/08/07 09:28:09;;;;;;;;;;;;;;;19.08;54.90;101584.22;4987866;28;19932;-75
2023/08/07 09:30:36;;;;;;;;;;;;;;;19.13;54.59;101578.72;4985082;28;19924;-73
2023/08/07 09:33:02;;;;;;;;;;;;;;;19.18;54.46;101574.03;4986534;28;19917;-73
2023/08/07 09:35:29;;;;;;;;;;;;;;;19.24;54.68;101578.38;4985396;28;19917;-72
2023/08/07 09:37:56;;;;;;;;;;;;;;;19.30;54.88;101581.09;4987409;28;20345;-72
2023/08/07 09:40:21;;;;;;;;;;;;;;;19.34;54.76;101580.25;4985145;28;20672;-73
2023/08/07 09:42:50;;;;;;;;;;;;;;;19.39;55.17;101580.22;4984029;28;19925;-73
2023/08/07 09:45:25;;;;;;;;;;;;;;;19.47;54.79;101584.28;4989031;28;19913;-73
2023/08/07 09:48:01;;;;;;;;;;;;;;;19.53;54.66;101574.97;4986171;28;19924;-73
2023/08/07 09:50:26;;;;;;;;;;;;;;;19.59;55.02;101583.97;4987500;28;19940;-74
2023/08/07 09:52:52;;;;;;;;;;;;;;;19.65;54.37;101589.16;4984688;28;19926;-73
2023/08/07 09:55:17;;;;;;;;;;;;;;;19.69;54.53;101580.38;4985163;28;19922;-76
2023/08/07 09:57:45;;;;;;;;;;;;;;;19.73;54.58;101587.75;4989244;28;19926;-73
2023/08/07 10:00:19;;;;;;;;;;;;;;;19.80;55.04;101587.41;4989251;28;19922;-74
2023/08/07 10:02:45;;;;;;;;;;;;;;;19.86;55.16;101589.84;4990951;28;19928;-73
2023/08/07 10:05:11;;;;;;;;;;;;;;;19.93;55.12;101585.97;4991127;28;19969;-74
2023/08/07 10:07:40;;;;;;;;;;;;;;;19.98;54.69;101596.91;4986646;28;19932;-71
2023/08/07 10:10:06;;;;;;;;;;;;;;;20.02;54.91;101607.00;4987432;28;20385;-70
2023/08/07 10:12:32;;;;;;;;;;;;;;;20.06;54.44;101597.13;4988367;28;20396;-72
2023/08/07 10:14:58;;;;;;;;;;;;;;;20.14;54.80;101597.63;4989226;28;20008;-71
2023/08/07 10:17:24;;;;;;;;;;;;;;;20.20;54.52;101604.69;4989300;28;19956;-72
2023/08/07 10:19:50;;;;;;;;;;;;;;;20.25;54.77;101610.94;5016132;28;19961;-73
2023/08/07 10:22:16;;;;;;;;;;;;;;;20.29;54.27;101606.53;4985565;28;19930;-70
2023/08/07 10:24:42;;;;;;;;;;;;;;;20.35;54.30;101618.28;4987903;28;19940;-71
2023/08/07 10:27:09;;;;;;;;;;;;;;;20.41;54.19;101608.06;4970230;28;20282;-73
2023/08/07 10:29:34;;;;;;;;;;;;;;;20.46;54.20;101610.78;4987861;28;19925;-71
2023/08/07 10:32:01;;;;;;;;;;;;;;;20.49;54.28;101613.78;5017403;28;19917;-71
2023/08/07 10:34:28;;;;;;;;;;;;;;;20.52;54.02;101613.19;4989473;28;19925;-71
2023/08/07 10:36:53;;;;;;;;;;;;;;;20.57;53.71;101625.28;4985954;28;19921;-71
2023/08/07 10:39:19;;;;;;;;;;;;;;;20.60;53.94;101606.28;4984561;28;20346;-71
2023/08/07 10:41:45;;;;;;;;;;;;;;;20.66;54.13;101607.06;4983357;28;20013;-71
2023/08/07 10:44:18;;;;;;;;;;;;;;;20.69;54.12;101629.28;4985828;28;19933;-71
2023/08/07 10:46:48;;;;;;;;;;;;;;;20.74;53.59;101622.91;4987423;28;20217;-72
2023/08/07 10:49:30;;;;;;;;;;;;;;;20.77;53.50;101618.78;4988463;28;19936;-70
2023/08/07 10:51:55;;;;;;;;;;;;;;;20.80;53.55;101624.50;4988866;28;19972;-73
2023/08/07 10:54:21;;;;;;;;;;;;;;;20.85;53.45;101624.44;4986446;28;19949;-70
2023/08/07 10:56:52;;;;;;;;;;;;;;;20.89;53.75;101631.00;4988495;28;19939;-71
2023/08/07 10:59:17;;;;;;;;;;;;;;;20.92;53.71;101635.09;4984214;28;19918;-71
2023/08/07 11:01:43;;;;;;;;;;;;;;;20.93;53.42;101632.03;4988076;28;19926;-74
2023/08/07 11:04:09;;;;;;;;;;;;;;;20.97;53.68;101632.28;4985589;28;19922;-76
2023/08/07 11:06:35;;;;;;;;;;;;;;;21.01;53.14;101636.06;4986966;28;20008;-71
2023/08/07 11:09:03;;;;;;;;;;;;;;;21.04;53.56;101630.00;4987988;28;19939;-71
2023/08/07 11:11:29;;;;;;;;;;;;;;;21.07;53.27;101634.09;4985923;28;19913;-72
2023/08/07 11:13:54;;;;;;;;;;;;;;;21.09;52.91;101631.84;4980141;28;19925;-72
2023/08/07 11:16:23;;;;;;;;;;;;;;;21.10;53.15;101636.25;4987230;28;20370;-71
2023/08/07 11:18:49;;;;;;;;;;;;;;;21.12;53.09;101621.13;4986978;28;19933;-72
2023/08/07 11:21:14;;;;;;;;;;;;;;;21.16;53.13;101624.09;4986634;28;19921;-72
2023/08/07 11:23:40;;;;;;;;;;;;;;;21.20;53.13;101627.09;4985197;28;19924;-72
2023/08/07 11:26:06;;;;;;;;;;;;;;;21.21;52.99;101629.53;4988756;28;19922;-72
2023/08/07 11:28:31;;;;;;;;;;;;;;;21.26;53.33;101617.66;4987214;28;19938;-71
2023/08/07 11:30:57;;;;;;;;;;;;;;;21.28;53.33;101624.50;4983850;28;19917;-72
2023/08/07 11:33:26;;;;;;;;;;;;;;;21.32;53.39;101622.81;4987345;28;19917;-71
2023/08/07 11:35:51;;;;;;;;;;;;;;;21.37;52.94;101638.44;4986538;28;19918;-71
2023/08/07 11:38:33;;;;;;;;;;;;;;;21.38;52.68;101634.56;4986045;28;20362;-74
2023/08/07 11:40:59;;;;;;;;;;;;;;;21.36;52.76;101629.34;4984314;28;19922;-72
2023/08/07 11:43:26;;;;;;;;;;;;;;;21.38;52.68;101640.03;4984997;28;19918;-71
2023/08/07 11:45:51;;;;;;;;;;;;;;;21.39;53.24;101641.69;4983833;28;19925;-71
2023/08/07 11:48:17;;;;;;;;;;;;;;;21.39;53.08;101648.03;4985278;28;19922;-73
2023/08/07 11:50:42;;;;;;;;;;;;;;;21.42;52.80;101643.03;4987445;28;19942;-75
2023/08/07 11:53:07;;;;;;;;;;;;;;;21.45;53.29;101645.22;4984298;28;20310;-73
2023/08/07 11:55:33;;;;;;;;;;;;;;;21.46;52.74;101642.16;4985229;28;19921;-74
2023/08/07 11:57:59;;;;;;;;;;;;;;;21.49;53.00;101636.06;4984590;28;19930;-73
2023/08/07 12:00:26;;;;;;;;;;;;;;;21.51;53.17;101630.28;4984741;28;19921;-73
2023/08/07 12:02:51;;;;;;;;;;;;;;;21.52;53.12;101637.41;4980874;28;19929;-73
2023/08/07 12:05:17;;;;;;;;;;;;;;;21.54;53.18;101641.50;4986941;28;19922;-73
2023/08/07 12:07:42;;;;;;;;;;;;;;;21.53;52.95;101628.88;4982686;28;19961;-75
2023/08/07 12:10:09;;;;;;;;;;;;;;;21.55;52.75;101642.34;4987634;28;20029;-75
2023/08/07 12:12:36;;;;;;;;;;;;;;;21.54;53.11;101633.25;4987200;28;19917;-74
2023/08/07 12:15:01;;;;;;;;;;;;;;;21.55;52.70;101639.59;4987524;28;20075;-73
2023/08/07 12:17:29;;;;;;;;;;;;;;;21.56;52.60;101636.53;4979653;28;20532;-73
2023/08/07 12:19:56;;;;;;;;;;;;;;;21.58;52.58;101655.50;4984860;28;19928;-73
2023/08/07 12:22:21;;;;;;;;;;;;;;;21.60;52.60;101647.78;4984407;28;19921;-72
2023/08/07 12:24:47;;;;;;;;;;;;;;;21.61;52.98;101641.16;4985473;28;19925;-73
2023/08/07 12:27:12;;;;;;;;;;;;;;;21.61;52.48;101641.16;4989642;28;21805;-74
2023/08/07 12:29:37;;;;;;;;;;;;;;;21.62;52.57;101651.06;4984507;28;21147;-73